createdAt,value
2018-08-09T00:00:57.256Z,21.70
2018-08-09T00:03:24.078Z,21.70
2018-08-09T00:05:50.855Z,21.70
2018-08-09T00:08:17.647Z,21.70
2018-08-09T00:10:44.493Z,21.70
2018-08-09T00:13:11.263Z,21.60
2018-08-09T00:15:38.056Z,21.60
2018-08-09T00:18:04.907Z,21.60
2018-08-09T00:20:31.666Z,21.60
2018-08-09T00:22:58.463Z,21.60
2018-08-09T00:25:26.029Z,21.60
2018-08-09T00:27:53.552Z,21.60
2018-08-09T00:30:20.328Z,21.60
2018-08-09T00:32:47.828Z,21.50
2018-08-09T00:35:14.616Z,21.50
2018-08-09T00:37:42.249Z,21.50
2018-08-09T00:40:09.008Z,21.50
2018-08-09T00:42:35.763Z,21.50
2018-08-09T00:45:03.407Z,21.50
2018-08-09T00:47:30.227Z,21.50
2018-08-09T00:49:56.999Z,21.50
2018-08-09T00:52:24.516Z,21.40
2018-08-09T00:54:51.343Z,21.40
2018-08-09T00:57:18.097Z,21.40
2018-08-09T00:59:44.855Z,21.40
2018-08-09T01:02:11.826Z,21.40
2018-08-09T01:04:38.611Z,21.40
2018-08-09T01:07:05.418Z,21.40
2018-08-09T01:09:32.967Z,21.30
2018-08-09T01:11:59.746Z,21.30
2018-08-09T01:14:26.565Z,20.90
2018-08-09T01:16:54.093Z,20.70
2018-08-09T01:19:20.903Z,20.70
2018-08-09T01:21:47.712Z,20.70
2018-08-09T01:24:15.274Z,20.60
2018-08-09T01:26:42.090Z,20.50
2018-08-09T01:29:08.855Z,20.50
2018-08-09T01:31:36.392Z,20.30
2018-08-09T01:34:03.224Z,20.30
2018-08-09T01:36:29.999Z,20.30
2018-08-09T01:38:57.635Z,20.40
2018-08-09T01:41:24.438Z,20.30
2018-08-09T01:43:51.267Z,20.40
2018-08-09T01:46:18.071Z,20.30
2018-08-09T01:48:44.853Z,20.30
2018-08-09T01:51:11.785Z,20.30
2018-08-09T01:53:38.543Z,20.30
2018-08-09T01:56:05.303Z,20.40
2018-08-09T01:58:32.143Z,20.30
2018-08-09T02:00:58.905Z,20.30
2018-08-09T02:03:25.806Z,20.30
2018-08-09T02:05:52.606Z,20.30
2018-08-09T02:08:19.363Z,20.20
2018-08-09T02:10:47.889Z,20.10
2018-08-09T02:13:14.654Z,20.10
2018-08-09T02:15:41.460Z,20.00
2018-08-09T02:18:09.091Z,20.00
2018-08-09T02:20:36.595Z,20.00
2018-08-09T02:23:03.375Z,19.90
2018-08-09T02:25:30.151Z,19.90
2018-08-09T02:27:56.911Z,19.80
2018-08-09T02:30:23.734Z,19.80
2018-08-09T02:32:50.487Z,19.60
2018-08-09T02:35:17.243Z,19.60
2018-08-09T02:37:44.108Z,19.60
2018-08-09T02:40:10.862Z,19.60
2018-08-09T02:42:37.608Z,19.50
2018-08-09T02:45:05.216Z,19.40
2018-08-09T02:47:31.977Z,19.40
2018-08-09T02:49:59.517Z,19.40
2018-08-09T02:52:27.054Z,19.40
2018-08-09T02:55:08.691Z,19.30
2018-08-09T02:57:35.473Z,19.40
2018-08-09T03:00:02.332Z,19.30
2018-08-09T03:02:29.104Z,19.40
2018-08-09T03:04:55.885Z,19.40
2018-08-09T03:07:23.383Z,19.30
2018-08-09T03:09:50.216Z,19.30
2018-08-09T03:12:16.954Z,19.30
2018-08-09T03:14:43.959Z,19.20
2018-08-09T03:17:10.678Z,19.30
2018-08-09T03:19:37.455Z,19.30
2018-08-09T03:22:04.947Z,19.20
2018-08-09T03:24:31.589Z,19.20
2018-08-09T03:26:58.275Z,19.20
2018-08-09T03:29:24.960Z,19.20
2018-08-09T03:31:51.629Z,19.30
2018-08-09T03:34:18.312Z,19.30
2018-08-09T03:36:45.171Z,19.30
2018-08-09T03:39:11.869Z,19.30
2018-08-09T03:41:38.561Z,19.30
2018-08-09T03:44:05.259Z,19.40
2018-08-09T03:46:33.140Z,19.60
2018-08-09T03:48:59.945Z,19.50
2018-08-09T03:51:27.444Z,19.70
2018-08-09T03:53:54.864Z,19.80
2018-08-09T03:56:21.518Z,19.80
2018-08-09T03:58:48.239Z,19.90
2018-08-09T04:01:14.919Z,19.90
2018-08-09T04:03:42.377Z,20.10
2018-08-09T04:06:09.279Z,20.10
2018-08-09T04:08:35.965Z,20.30
2018-08-09T04:11:02.638Z,20.30
2018-08-09T04:13:29.475Z,20.40
2018-08-09T04:15:56.128Z,20.70
2018-08-09T04:18:22.801Z,20.80
2018-08-09T04:20:50.241Z,21.10
2018-08-09T04:23:16.930Z,21.10
2018-08-09T04:25:43.611Z,21.30
2018-08-09T04:28:10.298Z,21.50
2018-08-09T04:30:37.739Z,21.80
2018-08-09T04:33:05.550Z,22.10
2018-08-09T04:35:32.305Z,22.10
2018-08-09T04:38:00.805Z,22.40
2018-08-09T04:40:28.814Z,22.40
2018-08-09T04:42:55.657Z,23.00
2018-08-09T04:45:22.372Z,23.40
2018-08-09T04:47:49.792Z,23.70
2018-08-09T04:50:16.460Z,23.70
2018-08-09T04:52:43.236Z,23.80
2018-08-09T04:55:09.927Z,23.90
2018-08-09T04:57:36.623Z,24.10
2018-08-09T05:00:03.712Z,24.50
2018-08-09T05:02:30.563Z,25.10
2018-08-09T05:04:57.284Z,25.70
2018-08-09T05:07:23.947Z,26.40
2018-08-09T05:09:50.774Z,27.50
2018-08-09T05:12:17.477Z,28.30
2018-08-09T05:14:44.137Z,27.90
2018-08-09T05:17:10.887Z,26.80
2018-08-09T05:19:38.274Z,25.40
2018-08-09T05:22:06.137Z,24.90
2018-08-09T05:24:33.607Z,24.50
2018-08-09T05:27:00.372Z,24.50
2018-08-09T05:29:27.320Z,24.30
2018-08-09T05:31:54.371Z,24.30
2018-08-09T05:34:21.963Z,24.20
2018-08-09T05:36:50.603Z,24.50
2018-08-09T05:39:17.539Z,24.50
2018-08-09T05:41:44.269Z,24.70
2018-08-09T05:44:11.691Z,25.90
2018-08-09T05:46:39.836Z,26.10
2018-08-09T05:49:06.532Z,26.00
2018-08-09T05:51:33.171Z,26.10
2018-08-09T05:53:59.942Z,26.20
2018-08-09T05:56:26.617Z,26.30
2018-08-09T05:58:53.267Z,27.00
2018-08-09T06:01:20.102Z,27.20
2018-08-09T06:03:46.935Z,27.80
2018-08-09T06:06:13.642Z,28.50
2018-08-09T06:08:40.355Z,30.10
2018-08-09T06:11:07.790Z,32.50
2018-08-09T06:13:34.511Z,32.50
2018-08-09T06:16:01.251Z,33.60
2018-08-09T06:18:27.950Z,34.10
2018-08-09T06:20:54.616Z,34.60
2018-08-09T06:23:21.337Z,33.00
2018-08-09T06:25:48.058Z,32.00
2018-08-09T06:28:14.763Z,32.10
2018-08-09T06:30:41.647Z,32.10
2018-08-09T06:33:09.068Z,30.80
2018-08-09T06:35:35.750Z,30.70
2018-08-09T06:38:02.615Z,30.10
2018-08-09T06:40:29.679Z,30.30
2018-08-09T06:42:57.092Z,29.10
2018-08-09T06:45:24.667Z,28.50
2018-08-09T06:47:51.345Z,28.50
2018-08-09T06:50:18.028Z,28.50
2018-08-09T06:52:44.748Z,28.40
2018-08-09T06:55:11.434Z,27.80
2018-08-09T06:57:38.129Z,27.40
2018-08-09T07:00:05.601Z,27.00
2018-08-09T07:02:32.341Z,26.90
2018-08-09T07:05:00.466Z,26.80
2018-08-09T07:07:27.111Z,26.80
2018-08-09T07:09:53.949Z,26.50
2018-08-09T07:12:20.668Z,26.30
2018-08-09T07:14:50.315Z,26.70
2018-08-09T07:17:17.030Z,28.10
2018-08-09T07:19:44.803Z,29.80
2018-08-09T07:22:11.484Z,30.20
2018-08-09T07:24:38.252Z,29.80
2018-08-09T07:27:05.077Z,29.90
2018-08-09T07:29:33.433Z,30.50
2018-08-09T07:32:00.114Z,30.40
2018-08-09T07:34:26.848Z,30.10
2018-08-09T07:36:53.524Z,29.90
2018-08-09T07:39:20.275Z,30.20
2018-08-09T07:41:47.743Z,31.60
2018-08-09T07:44:15.163Z,32.70
2018-08-09T07:46:41.870Z,32.60
2018-08-09T07:49:08.568Z,34.60
2018-08-09T07:51:35.271Z,34.40
2018-08-09T07:54:02.082Z,34.00
2018-08-09T07:56:28.787Z,34.60
2018-08-09T07:58:55.697Z,34.80
2018-08-09T08:01:22.454Z,36.80
2018-08-09T08:03:49.160Z,35.90
2018-08-09T08:06:16.035Z,36.10
2018-08-09T08:08:43.419Z,36.20
2018-08-09T08:11:10.194Z,36.20
2018-08-09T08:13:36.894Z,34.00
2018-08-09T08:16:03.811Z,33.10
2018-08-09T08:18:30.513Z,32.90
2018-08-09T08:20:57.976Z,32.20
2018-08-09T08:23:25.456Z,31.30
2018-08-09T08:25:52.316Z,31.30
2018-08-09T08:28:19.151Z,31.60
2018-08-09T08:30:45.826Z,32.60
2018-08-09T08:33:12.523Z,33.90
2018-08-09T08:35:39.212Z,34.70
2018-08-09T08:38:05.866Z,35.30
2018-08-09T08:40:33.470Z,35.50
2018-08-09T08:43:00.209Z,35.50
2018-08-09T08:45:26.908Z,34.10
2018-08-09T08:47:54.311Z,32.60
2018-08-09T08:50:21.017Z,32.60
2018-08-09T08:52:47.783Z,32.70
2018-08-09T08:55:16.778Z,31.80
2018-08-09T08:57:43.752Z,32.40
2018-08-09T09:00:10.537Z,33.40
2018-08-09T09:02:38.946Z,35.60
2018-08-09T09:05:06.797Z,35.50
2018-08-09T09:07:34.538Z,35.70
2018-08-09T09:10:02.442Z,34.70
2018-08-09T09:12:29.100Z,33.80
2018-08-09T09:14:57.043Z,33.40
2018-08-09T09:17:24.607Z,32.70
2018-08-09T09:19:53.880Z,32.40
2018-08-09T09:22:21.880Z,32.70
2018-08-09T09:24:48.942Z,32.80
2018-08-09T09:27:15.642Z,32.60
2018-08-09T09:29:42.714Z,32.20
2018-08-09T09:32:09.367Z,32.50
2018-08-09T09:34:38.294Z,33.00
2018-08-09T09:37:05.738Z,32.70
2018-08-09T09:39:33.349Z,32.70
2018-08-09T09:42:01.752Z,32.80
2018-08-09T09:44:29.313Z,32.80
2018-08-09T09:46:57.234Z,33.10
2018-08-09T09:49:24.397Z,33.10
2018-08-09T09:51:53.536Z,33.10
2018-08-09T09:54:20.780Z,33.10
2018-08-09T09:56:47.532Z,33.20
2018-08-09T09:59:14.955Z,32.60
2018-08-09T10:01:42.446Z,32.50
2018-08-09T10:04:10.870Z,32.00
2018-08-09T10:06:38.913Z,32.30
2018-08-09T10:09:06.145Z,32.30
2018-08-09T10:11:32.879Z,32.50
2018-08-09T10:14:01.306Z,32.60
2018-08-09T10:16:29.634Z,32.40
2018-08-09T10:18:57.280Z,32.30
2018-08-09T10:21:26.996Z,32.10
2018-08-09T10:23:53.646Z,31.70
2018-08-09T10:26:21.456Z,31.80
2018-08-09T10:28:49.348Z,32.80
2018-08-09T10:31:16.036Z,32.70
2018-08-09T10:33:44.247Z,32.90
2018-08-09T10:36:13.047Z,32.80
2018-08-09T10:38:40.669Z,32.70
2018-08-09T10:41:08.301Z,32.80
2018-08-09T10:43:36.434Z,32.60
2018-08-09T10:46:05.230Z,31.80
2018-08-09T10:48:32.548Z,31.70
2018-08-09T10:51:00.766Z,31.50
2018-08-09T10:53:29.204Z,31.50
2018-08-09T10:55:56.496Z,31.20
2018-08-09T10:58:23.366Z,31.40
2018-08-09T11:00:51.194Z,31.10
2018-08-09T11:03:18.177Z,31.10
2018-08-09T11:05:44.851Z,31.40
2018-08-09T11:08:11.807Z,31.30
2018-08-09T11:10:40.206Z,31.70
2018-08-09T11:13:08.002Z,31.50
2018-08-09T11:15:37.021Z,31.50
2018-08-09T11:18:04.049Z,31.10
2018-08-09T11:20:31.881Z,31.20
2018-08-09T11:23:00.661Z,31.30
2018-08-09T11:25:29.824Z,31.20
2018-08-09T11:27:57.352Z,31.10
2018-08-09T11:30:27.084Z,31.10
2018-08-09T11:32:54.084Z,31.10
2018-08-09T11:35:21.459Z,31.20
2018-08-09T11:37:48.790Z,31.30
2018-08-09T11:40:15.449Z,30.90
2018-08-09T11:42:42.674Z,30.60
2018-08-09T11:45:11.639Z,31.00
2018-08-09T11:47:41.242Z,30.50
2018-08-09T11:50:09.017Z,30.50
2018-08-09T11:52:36.578Z,30.30
2018-08-09T11:55:04.284Z,30.40
2018-08-09T11:57:31.748Z,30.50
2018-08-09T12:00:01.048Z,30.60
2018-08-09T12:02:29.429Z,30.60
2018-08-09T12:04:56.524Z,30.50
2018-08-09T12:07:24.099Z,30.40
2018-08-09T12:09:52.571Z,30.40
2018-08-09T12:12:20.008Z,30.40
2018-08-09T12:14:47.637Z,30.40
2018-08-09T12:17:16.191Z,30.50
2018-08-09T12:19:45.302Z,30.40
2018-08-09T12:22:12.029Z,30.40
2018-08-09T12:24:40.109Z,30.50
2018-08-09T12:27:08.072Z,30.30
2018-08-09T12:29:35.081Z,30.30
2018-08-09T12:32:03.615Z,30.30
2018-08-09T12:34:32.254Z,30.30
2018-08-09T12:36:59.247Z,30.30
2018-08-09T12:39:25.973Z,30.20
2018-08-09T12:41:52.653Z,30.20
2018-08-09T12:44:19.365Z,30.10
2018-08-09T12:46:46.982Z,29.80
2018-08-09T12:49:14.597Z,29.50
2018-08-09T12:51:42.616Z,29.50
2018-08-09T12:54:10.172Z,29.50
2018-08-09T12:56:40.320Z,29.60
2018-08-09T12:59:07.420Z,29.70
2018-08-09T13:01:34.121Z,29.80
2018-08-09T13:04:00.861Z,30.10
2018-08-09T13:06:28.516Z,30.30
2018-08-09T13:08:55.226Z,30.30
2018-08-09T13:11:22.601Z,29.90
2018-08-09T13:13:50.169Z,30.10
2018-08-09T13:16:16.947Z,30.30
2018-08-09T13:18:43.696Z,30.50
2018-08-09T13:21:11.351Z,30.40
2018-08-09T13:23:39.277Z,30.20
2018-08-09T13:26:07.103Z,30.20
2018-08-09T13:28:35.873Z,29.90
2018-08-09T13:31:04.647Z,29.90
2018-08-09T13:33:32.658Z,29.70
2018-08-09T13:36:00.241Z,29.50
2018-08-09T13:38:27.657Z,29.90
2018-08-09T13:40:56.397Z,29.90
2018-08-09T13:43:23.250Z,29.90
2018-08-09T13:45:49.923Z,29.80
2018-08-09T13:48:19.431Z,29.90
2018-08-09T13:50:48.722Z,30.10
2018-08-09T13:53:16.374Z,30.10
2018-08-09T13:55:43.165Z,30.00
2018-08-09T13:58:10.864Z,29.90
2018-08-09T14:00:37.896Z,29.70
2018-08-09T14:03:05.387Z,29.70
2018-08-09T14:05:34.130Z,29.60
2018-08-09T14:08:00.894Z,29.50
2018-08-09T14:10:30.408Z,29.60
2018-08-09T14:12:57.239Z,29.90
2018-08-09T14:15:24.004Z,29.90
2018-08-09T14:17:50.738Z,29.70
2018-08-09T14:20:18.721Z,29.60
2018-08-09T14:22:46.660Z,29.70
2018-08-09T14:25:15.510Z,29.80
2018-08-09T14:27:43.351Z,29.80
2018-08-09T14:30:11.533Z,29.70
2018-08-09T14:32:38.312Z,29.60
2018-08-09T14:35:05.880Z,29.60
2018-08-09T14:37:33.398Z,29.50
2018-08-09T14:40:00.330Z,29.60
2018-08-09T14:42:27.091Z,29.60
2018-08-09T14:44:54.536Z,29.70
2018-08-09T14:47:21.370Z,29.70
2018-08-09T14:49:48.094Z,29.50
2018-08-09T14:52:14.779Z,29.60
2018-08-09T14:54:42.225Z,29.80
2018-08-09T14:57:08.925Z,29.80
2018-08-09T14:59:35.653Z,29.70
2018-08-09T15:02:02.399Z,29.60
2018-08-09T15:04:29.236Z,29.60
2018-08-09T15:07:11.975Z,29.50
2018-08-09T15:09:38.714Z,29.50
2018-08-09T15:12:05.383Z,29.50
2018-08-09T15:14:32.613Z,29.40
2018-08-09T15:17:00.089Z,29.40
2018-08-09T15:19:26.795Z,29.40
2018-08-09T15:21:53.567Z,29.50
2018-08-09T15:24:20.319Z,29.50
2018-08-09T15:26:47.154Z,29.40
2018-08-09T15:29:13.855Z,29.30
2018-08-09T15:31:40.590Z,29.20
2018-08-09T15:34:07.260Z,29.00
2018-08-09T15:36:33.953Z,29.00
2018-08-09T15:39:00.650Z,29.00
2018-08-09T15:41:27.332Z,29.10
2018-08-09T15:43:54.029Z,29.00
2018-08-09T15:46:21.525Z,28.70
2018-08-09T15:48:48.224Z,28.60
2018-08-09T15:51:15.015Z,28.60
2018-08-09T15:53:42.130Z,28.60
2018-08-09T15:56:09.613Z,28.50
2018-08-09T15:58:37.089Z,28.50
2018-08-09T16:01:03.906Z,28.40
2018-08-09T16:03:31.934Z,28.50
2018-08-09T16:06:00.101Z,28.60
2018-08-09T16:08:27.893Z,28.50
2018-08-09T16:10:54.594Z,28.50
2018-08-09T16:13:21.333Z,28.50
2018-08-09T16:15:48.284Z,28.50
2018-08-09T16:18:15.020Z,28.40
2018-08-09T16:20:42.291Z,28.10
2018-08-09T16:23:09.194Z,28.00
2018-08-09T16:25:35.915Z,28.00
2018-08-09T16:28:03.802Z,27.90
2018-08-09T16:30:30.598Z,27.80
2018-08-09T16:32:58.125Z,27.80
2018-08-09T16:35:25.837Z,27.90
2018-08-09T16:37:52.886Z,27.70
2018-08-09T16:40:21.248Z,27.70
2018-08-09T16:42:48.263Z,27.70
2018-08-09T16:45:15.200Z,27.70
2018-08-09T16:47:42.804Z,27.60
2018-08-09T16:50:09.584Z,27.60
2018-08-09T16:52:36.451Z,27.60
2018-08-09T16:55:03.551Z,27.60
2018-08-09T16:57:30.445Z,27.70
2018-08-09T16:59:57.366Z,27.70
2018-08-09T17:02:24.127Z,27.70
2018-08-09T17:04:50.873Z,27.60
2018-08-09T17:07:17.573Z,27.50
2018-08-09T17:09:44.360Z,27.40
2018-08-09T17:12:11.909Z,27.20
2018-08-09T17:14:38.577Z,27.20
2018-08-09T17:17:05.349Z,27.20
2018-08-09T17:19:32.809Z,27.00
2018-08-09T17:22:00.227Z,27.10
2018-08-09T17:24:27.014Z,27.10
2018-08-09T17:26:58.076Z,27.10
2018-08-09T17:29:27.675Z,27.10
2018-08-09T17:31:59.249Z,26.90
2018-08-09T17:34:30.164Z,26.90
2018-08-09T17:36:58.598Z,26.80
2018-08-09T17:39:28.461Z,26.60
2018-08-09T17:41:56.854Z,26.60
2018-08-09T17:44:27.905Z,26.60
2018-08-09T17:46:54.659Z,26.60
2018-08-09T17:49:21.375Z,26.70
2018-08-09T17:51:48.110Z,26.70
2018-08-09T17:54:14.846Z,26.60
2018-08-09T17:56:41.538Z,26.60
2018-08-09T17:59:08.253Z,26.60
2018-08-09T18:01:35.290Z,26.50
2018-08-09T18:04:02.007Z,26.50
2018-08-09T18:06:29.158Z,26.30
2018-08-09T18:08:55.897Z,26.30
2018-08-09T18:11:22.604Z,26.20
2018-08-09T18:13:49.335Z,26.00
2018-08-09T18:16:17.590Z,25.80
2018-08-09T18:18:44.305Z,25.80
2018-08-09T18:21:11.613Z,25.80
2018-08-09T18:23:38.478Z,25.80
2018-08-09T18:26:05.173Z,25.80
2018-08-09T18:28:31.858Z,25.80
2018-08-09T18:30:58.585Z,25.70
2018-08-09T18:33:25.385Z,25.70
2018-08-09T18:35:52.870Z,25.50
2018-08-09T18:38:20.443Z,25.50
2018-08-09T18:40:47.162Z,25.40
2018-08-09T18:43:13.912Z,25.40
2018-08-09T18:45:41.352Z,25.00
2018-08-09T18:48:08.826Z,24.90
2018-08-09T18:50:36.263Z,24.80
2018-08-09T18:53:02.995Z,24.70
2018-08-09T18:55:29.694Z,24.60
2018-08-09T18:57:56.428Z,24.60
2018-08-09T19:00:23.224Z,24.30
2018-08-09T19:02:50.003Z,24.20
2018-08-09T19:05:16.722Z,24.10
2018-08-09T19:07:44.191Z,23.70
2018-08-09T19:10:11.694Z,23.50
2018-08-09T19:12:38.513Z,23.50
2018-08-09T19:15:05.223Z,23.30
2018-08-09T19:17:32.641Z,23.00
2018-08-09T19:19:59.497Z,22.90
2018-08-09T19:22:26.243Z,22.80
2018-08-09T19:24:53.011Z,22.70
2018-08-09T19:27:20.630Z,22.40
2018-08-09T19:29:47.304Z,22.40
2018-08-09T19:32:14.742Z,22.30
2018-08-09T19:34:41.529Z,22.30
2018-08-09T19:37:08.355Z,22.30
2018-08-09T19:39:35.080Z,22.10
2018-08-09T19:42:02.166Z,22.20
2018-08-09T19:44:28.905Z,22.20
2018-08-09T19:46:55.750Z,22.20
2018-08-09T19:49:22.459Z,22.40
2018-08-09T19:51:49.163Z,22.40
2018-08-09T19:54:16.181Z,22.40
2018-08-09T19:56:43.063Z,22.30
2018-08-09T19:59:09.847Z,22.30
2018-08-09T20:01:36.599Z,22.10
2018-08-09T20:04:03.344Z,22.00
2018-08-09T20:06:30.192Z,21.90
2018-08-09T20:08:56.938Z,21.80
2018-08-09T20:11:24.019Z,21.70
2018-08-09T20:13:50.845Z,21.60
2018-08-09T20:16:18.357Z,21.40
2018-08-09T20:18:49.036Z,21.30
2018-08-09T20:21:15.752Z,21.30
2018-08-09T20:23:42.683Z,21.10
2018-08-09T20:26:09.403Z,21.00
2018-08-09T20:28:37.667Z,20.80
2018-08-09T20:31:06.381Z,20.70
2018-08-09T20:33:33.078Z,20.70
2018-08-09T20:35:59.964Z,20.60
2018-08-09T20:38:27.160Z,20.50
2018-08-09T20:40:54.912Z,20.40
2018-08-09T20:43:21.652Z,20.30
2018-08-09T20:45:48.318Z,20.20
2018-08-09T20:48:15.084Z,20.00
2018-08-09T20:50:42.881Z,20.00
2018-08-09T20:53:10.461Z,19.90
2018-08-09T20:55:37.196Z,19.90
2018-08-09T20:58:03.937Z,19.90
2018-08-09T21:00:30.701Z,19.80
2018-08-09T21:02:59.225Z,19.80
2018-08-09T21:05:27.641Z,19.70
2018-08-09T21:07:57.179Z,19.60
2018-08-09T21:10:23.917Z,19.60
2018-08-09T21:12:50.683Z,19.60
2018-08-09T21:15:17.718Z,19.50
2018-08-09T21:17:46.550Z,19.40
2018-08-09T21:20:14.815Z,19.40
2018-08-09T21:22:41.572Z,19.30
2018-08-09T21:25:09.077Z,19.30
2018-08-09T21:27:37.268Z,19.30
2018-08-09T21:30:05.408Z,19.20
2018-08-09T21:32:32.432Z,19.10
2018-08-09T21:34:59.830Z,19.20
2018-08-09T21:37:28.257Z,19.10
2018-08-09T21:39:57.544Z,19.00
2018-08-09T21:42:27.076Z,19.00
2018-08-09T21:44:59.365Z,18.90
2018-08-09T21:47:27.548Z,18.90
2018-08-09T21:49:54.281Z,18.80
2018-08-09T21:52:21.002Z,18.80
2018-08-09T21:54:47.729Z,18.70
2018-08-09T21:57:14.483Z,18.80
2018-08-09T21:59:42.198Z,18.70
2018-08-09T22:02:09.976Z,18.80
2018-08-09T22:04:38.230Z,18.80
2018-08-09T22:10:16.528Z,18.80
2018-08-09T22:12:49.484Z,18.70
2018-08-09T22:15:22.971Z,18.70
2018-08-09T22:18:04.726Z,18.60
2018-08-09T22:20:40.641Z,18.50
2018-08-09T22:23:09.631Z,18.50
2018-08-09T22:25:36.906Z,18.50
2018-08-09T22:28:04.559Z,18.50
2018-08-09T22:30:33.514Z,18.40
2018-08-09T22:33:00.206Z,18.40
2018-08-09T22:35:26.908Z,18.40
2018-08-09T22:37:53.785Z,18.40
2018-08-09T22:40:20.504Z,18.40
2018-08-09T22:42:47.159Z,18.30
2018-08-09T22:45:14.130Z,18.30
2018-08-09T22:47:41.558Z,18.10
2018-08-09T22:50:08.465Z,18.10
2018-08-09T22:52:35.904Z,18.10
2018-08-09T22:55:03.373Z,18.10
2018-08-09T22:57:30.869Z,18.00
2018-08-09T22:59:57.587Z,18.00
2018-08-09T23:02:24.331Z,18.00
2018-08-09T23:04:51.093Z,18.00
2018-08-09T23:07:17.909Z,18.00
2018-08-09T23:09:44.635Z,17.90
2018-08-09T23:12:12.096Z,17.80
2018-08-09T23:14:38.794Z,17.80
2018-08-09T23:17:05.549Z,17.80
2018-08-09T23:19:32.295Z,17.80
2018-08-09T23:21:59.732Z,17.70
2018-08-09T23:24:26.495Z,17.70
2018-08-09T23:26:53.182Z,17.70
2018-08-09T23:29:19.886Z,17.70
2018-08-09T23:31:47.734Z,17.60
2018-08-09T23:34:14.447Z,17.60
2018-08-09T23:36:56.264Z,17.60
2018-08-09T23:39:22.970Z,17.60
2018-08-09T23:41:49.649Z,17.60
2018-08-09T23:44:16.378Z,17.50
2018-08-09T23:46:43.232Z,17.60
2018-08-09T23:49:09.916Z,17.50
2018-08-09T23:51:36.975Z,17.60
2018-08-09T23:54:03.677Z,17.50
2018-08-09T23:56:31.122Z,17.60
2018-08-09T23:58:57.911Z,17.50
